Time;durP1;ratioP1;P1;durP2;ratioP2;P2;SDS_P1;SDS_P2;PMS_P1;PMS_P2;Temp;Humidity;BMP_temperature;BMP_pressure;BME280_temperature;BME280_humidity;BME280_pressure;Samples;Min_cycle;Max_cycle;Signal;HPM_P1;HPM_P2
2023/03/04 00:00:36;;;;;;;13.47;6.93;;;3.60;99.90;;;;;;9824312;30;20246;-82
2023/03/04 00:05:57;;;;;;;18.77;7.77;;;3.60;99.90;;;;;;9819826;30;20218;-82
2023/03/04 00:11:19;;;;;;;15.60;8.10;;;3.50;99.90;;;;;;9811684;30;20213;-82
2023/03/04 00:16:40;;;;;;;18.23;7.10;;;3.60;99.90;;;;;;9846160;30;20265;-83
2023/03/04 00:22:02;;;;;;;15.67;7.67;;;3.60;99.90;;;;;;9817006;30;20293;-83
2023/03/04 00:27:24;;;;;;;14.00;6.73;;;3.60;99.90;;;;;;9827891;30;20411;-82
2023/03/04 00:32:45;;;;;;;19.57;7.80;;;3.70;99.90;;;;;;9833029;30;20256;-82
2023/03/04 00:38:07;;;;;;;23.20;8.33;;;3.70;99.90;;;;;;9826237;30;20503;-82
2023/03/04 00:43:29;;;;;;;20.00;8.07;;;3.80;99.90;;;;;;9861995;30;20204;-82
2023/03/04 00:48:50;;;;;;;16.63;7.20;;;3.70;99.90;;;;;;9848183;30;20293;-82
2023/03/04 00:54:11;;;;;;;20.70;6.77;;;3.80;99.90;;;;;;9848479;30;20235;-82
2023/03/04 00:59:34;;;;;;;13.30;6.30;;;3.80;99.90;;;;;;9864390;30;20209;-83
2023/03/04 01:04:56;;;;;;;24.03;6.33;;;3.80;99.90;;;;;;9847991;30;20533;-84
2023/03/04 01:10:18;;;;;;;16.83;6.50;;;3.90;99.90;;;;;;9810445;30;20291;-83
2023/03/04 01:15:39;;;;;;;11.07;5.33;;;4.00;99.90;;;;;;9799199;30;20242;-83
2023/03/04 01:21:00;;;;;;;23.33;7.30;;;4.00;99.90;;;;;;9844489;30;20218;-82
2023/03/04 01:26:24;;;;;;;21.23;7.67;;;4.00;99.90;;;;;;9833439;30;20217;-84
2023/03/04 01:31:46;;;;;;;21.93;6.97;;;4.00;99.90;;;;;;9852369;30;20279;-83
2023/03/04 01:37:08;;;;;;;19.47;5.63;;;4.10;99.90;;;;;;9843277;30;20219;-84
2023/03/04 01:42:32;;;;;;;16.80;5.67;;;4.10;99.90;;;;;;9834459;30;20218;-83
2023/03/04 01:47:53;;;;;;;18.77;6.03;;;4.10;99.90;;;;;;9810385;30;20288;-83
2023/03/04 01:53:26;;;;;;;15.57;5.13;;;4.10;99.90;;;;;;9837571;30;20263;-83
2023/03/04 01:59:06;;;;;;;14.57;5.30;;;4.10;99.90;;;;;;9839589;30;20221;-83
2023/03/04 02:04:31;;;;;;;21.10;6.33;;;4.10;99.90;;;;;;9833197;30;20451;-83
2023/03/04 02:09:52;;;;;;;21.23;6.13;;;4.20;99.90;;;;;;9791148;30;20272;-83
2023/03/04 02:15:14;;;;;;;21.70;6.67;;;4.20;99.90;;;;;;9797123;30;20260;-83
2023/03/04 02:20:42;;;;;;;27.47;6.47;;;4.20;99.90;;;;;;9811159;30;20214;-83
2023/03/04 02:26:20;;;;;;;16.67;6.50;;;4.30;99.90;;;;;;9833392;30;20393;-83
2023/03/04 02:31:46;;;;;;;16.60;5.07;;;4.30;99.90;;;;;;9856110;30;20221;-83
2023/03/04 02:37:09;;;;;;;14.77;4.70;;;4.30;99.90;;;;;;9831053;30;20216;-83
2023/03/04 02:42:30;;;;;;;24.23;5.37;;;4.30;99.90;;;;;;9830207;30;20208;-83
2023/03/04 02:47:52;;;;;;;17.17;4.50;;;4.30;99.90;;;;;;9857485;30;20214;-83
2023/03/04 02:53:14;;;;;;;15.47;4.90;;;4.30;99.90;;;;;;9839626;30;20244;-83
2023/03/04 02:58:37;;;;;;;26.80;5.10;;;4.30;99.90;;;;;;9844176;30;20499;-84
2023/03/04 03:03:58;;;;;;;20.87;4.80;;;4.30;99.90;;;;;;9831568;30;20213;-82
2023/03/04 03:09:20;;;;;;;22.53;4.73;;;4.30;99.90;;;;;;9829463;30;20232;-83
2023/03/04 03:14:41;;;;;;;15.03;4.23;;;4.30;99.90;;;;;;9832017;30;20237;-83
2023/03/04 03:20:05;;;;;;;14.87;4.13;;;4.20;99.90;;;;;;9843992;30;20554;-83
2023/03/04 03:25:26;;;;;;;20.77;4.17;;;4.30;99.90;;;;;;9805949;30;20462;-83
2023/03/04 03:30:48;;;;;;;17.93;4.67;;;4.30;99.90;;;;;;9800048;30;20211;-83
2023/03/04 03:36:09;;;;;;;15.73;4.50;;;4.30;99.90;;;;;;9815590;30;20240;-83
2023/03/04 03:41:32;;;;;;;12.40;4.07;;;4.20;99.90;;;;;;9818089;30;20270;-83
2023/03/04 03:46:54;;;;;;;14.50;3.50;;;4.30;99.90;;;;;;9842839;30;20291;-83
2023/03/04 03:52:15;;;;;;;13.30;3.53;;;4.20;99.90;;;;;;9830142;30;20242;-83
2023/03/04 03:57:36;;;;;;;15.33;4.07;;;4.20;99.90;;;;;;9839759;30;20258;-83
2023/03/04 04:02:59;;;;;;;17.67;3.77;;;4.10;99.90;;;;;;9815443;30;20507;-83
2023/03/04 04:08:22;;;;;;;13.30;3.60;;;4.20;99.90;;;;;;9839872;30;20255;-83
2023/03/04 04:13:43;;;;;;;13.07;3.60;;;4.20;99.90;;;;;;9840984;30;20323;-84
2023/03/04 04:19:04;;;;;;;22.77;4.63;;;4.10;99.90;;;;;;9793668;30;20262;-83
2023/03/04 04:24:25;;;;;;;16.67;4.70;;;4.20;99.90;;;;;;9793152;30;20209;-83
2023/03/04 04:29:47;;;;;;;13.90;4.00;;;4.20;99.90;;;;;;9798959;30;20520;-82
2023/03/04 04:35:08;;;;;;;17.50;4.27;;;4.20;99.90;;;;;;9835226;30;20236;-83
2023/03/04 04:40:30;;;;;;;11.83;3.53;;;4.10;99.90;;;;;;9830329;30;20521;-83
2023/03/04 04:45:51;;;;;;;16.97;3.60;;;4.10;99.90;;;;;;9846618;30;20270;-83
2023/03/04 04:51:12;;;;;;;10.67;3.17;;;4.20;99.90;;;;;;9842363;30;20209;-83
2023/03/04 04:56:33;;;;;;;11.20;2.67;;;4.20;99.90;;;;;;9841146;30;20316;-83
2023/03/04 05:01:55;;;;;;;13.90;3.77;;;4.10;99.90;;;;;;9821406;30;20237;-83
2023/03/04 05:07:16;;;;;;;19.40;4.63;;;4.00;99.90;;;;;;9836579;30;20209;-83
2023/03/04 05:12:37;;;;;;;13.20;3.97;;;3.90;99.90;;;;;;9832664;30;20246;-83
2023/03/04 05:17:59;;;;;;;11.80;3.77;;;3.80;99.90;;;;;;9847996;30;20278;-84
2023/03/04 05:23:20;;;;;;;18.60;3.40;;;3.80;99.90;;;;;;9848646;30;20208;-83
2023/03/04 05:28:42;;;;;;;16.23;3.67;;;3.70;99.90;;;;;;9843506;30;20389;-83
2023/03/04 05:34:03;;;;;;;11.67;3.50;;;3.70;99.90;;;;;;9837238;30;20308;-83
2023/03/04 05:39:24;;;;;;;14.23;3.33;;;3.70;99.90;;;;;;9847401;30;20212;-82
2023/03/04 05:44:45;;;;;;;10.20;3.40;;;3.70;99.90;;;;;;9832486;30;20587;-83
2023/03/04 05:50:07;;;;;;;11.67;3.30;;;3.80;99.90;;;;;;9847248;30;20255;-83
2023/03/04 05:55:28;;;;;;;13.13;3.17;;;3.70;99.90;;;;;;9846915;30;20261;-83
2023/03/04 06:00:50;;;;;;;11.43;3.30;;;3.70;99.90;;;;;;9837999;30;20212;-82
2023/03/04 06:06:11;;;;;;;13.57;3.47;;;3.70;99.90;;;;;;9866011;30;20265;-83
2023/03/04 06:11:32;;;;;;;13.10;2.70;;;3.80;99.90;;;;;;9882459;30;20493;-83
2023/03/04 06:16:56;;;;;;;16.60;3.33;;;3.80;99.90;;;;;;9822246;30;20263;-83
2023/03/04 06:22:17;;;;;;;15.13;3.37;;;3.80;99.90;;;;;;9821784;30;20200;-82
2023/03/04 06:27:38;;;;;;;15.60;3.37;;;3.80;99.90;;;;;;9796709;30;20266;-83
2023/03/04 06:32:59;;;;;;;12.17;3.83;;;3.80;99.90;;;;;;9820197;30;20316;-83
2023/03/04 06:38:21;;;;;;;12.13;3.57;;;3.90;99.90;;;;;;9822932;30;20224;-83
2023/03/04 06:43:43;;;;;;;18.07;4.10;;;3.90;99.90;;;;;;9856582;30;20211;-83
2023/03/04 06:49:04;;;;;;;14.83;4.03;;;3.90;99.90;;;;;;9832631;30;20233;-84
2023/03/04 06:54:25;;;;;;;18.20;3.40;;;3.90;99.90;;;;;;9832331;30;20294;-83
2023/03/04 06:59:46;;;;;;;8.03;2.60;;;3.90;99.90;;;;;;9842109;30;20209;-84
2023/03/04 07:05:09;;;;;;;15.10;4.27;;;4.00;99.90;;;;;;9845107;30;20197;-83
2023/03/04 07:10:30;;;;;;;15.23;4.17;;;4.10;99.90;;;;;;9815838;30;20203;-84
2023/03/04 07:15:52;;;;;;;12.23;3.40;;;4.10;99.90;;;;;;9831369;30;20450;-83
2023/03/04 07:21:14;;;;;;;11.80;3.57;;;4.10;99.90;;;;;;9815451;30;20442;-84
2023/03/04 07:26:36;;;;;;;16.90;7.20;;;4.10;99.90;;;;;;9795019;30;20296;-82
2023/03/04 07:31:58;;;;;;;12.03;3.17;;;4.10;99.90;;;;;;9806917;30;20291;-84
2023/03/04 07:37:20;;;;;;;12.20;4.03;;;4.10;99.90;;;;;;9802725;30;20264;-83
2023/03/04 07:42:41;;;;;;;9.27;2.37;;;4.10;99.90;;;;;;9818442;30;20217;-83
2023/03/04 07:48:07;;;;;;;8.67;3.40;;;4.10;99.90;;;;;;9829897;30;20287;-83
2023/03/04 07:53:30;;;;;;;8.77;3.70;;;4.20;99.90;;;;;;9835217;30;20249;-83
2023/03/04 07:58:55;;;;;;;11.07;4.13;;;4.20;99.90;;;;;;9841842;30;20209;-84
2023/03/04 08:04:16;;;;;;;7.47;3.63;;;4.20;99.90;;;;;;9843437;30;20497;-84
2023/03/04 08:09:38;;;;;;;4.93;2.60;;;4.20;99.90;;;;;;9855421;30;20229;-84
2023/03/04 08:14:59;;;;;;;8.10;2.73;;;4.10;99.90;;;;;;9849727;30;20232;-81
2023/03/04 08:20:21;;;;;;;6.97;3.00;;;4.10;99.00;;;;;;9851995;30;20225;-82
2023/03/04 08:25:42;;;;;;;8.67;3.27;;;4.10;97.60;;;;;;9847196;30;20292;-81
2023/03/04 08:31:04;;;;;;;6.27;3.23;;;4.00;94.10;;;;;;9821192;30;20197;-83
2023/03/04 08:36:25;;;;;;;5.50;2.90;;;4.00;94.40;;;;;;9824073;30;20282;-83
2023/03/04 08:41:47;;;;;;;6.37;3.67;;;4.00;57.90;;;;;;9828748;30;20579;-83
2023/03/04 08:47:09;;;;;;;7.80;3.40;;;4.10;54.30;;;;;;9849486;30;20266;-83
2023/03/04 08:52:31;;;;;;;5.07;3.03;;;4.00;32.30;;;;;;9848743;30;20212;-83
2023/03/04 08:57:52;;;;;;;4.93;1.43;;;4.10;29.50;;;;;;9829250;30;20215;-84
2023/03/04 09:03:15;;;;;;;6.40;3.90;;;4.10;25.40;;;;;;9848830;30;20211;-83
2023/03/04 09:08:36;;;;;;;3.87;1.60;;;4.00;24.70;;;;;;9830108;30;20255;-83
2023/03/04 09:13:57;;;;;;;5.43;1.90;;;4.10;25.80;;;;;;9823695;30;20242;-83
2023/03/04 09:19:19;;;;;;;8.17;1.97;;;4.20;25.80;;;;;;9848984;30;20480;-83
2023/03/04 09:24:41;;;;;;;4.17;1.73;;;4.30;23.60;;;;;;9849336;30;20216;-82
2023/03/04 09:30:02;;;;;;;5.83;1.90;;;4.40;20.70;;;;;;9807867;30;20206;-82
2023/03/04 09:35:24;;;;;;;6.80;2.50;;;4.50;19.20;;;;;;9815075;30;20232;-84
2023/03/04 09:40:48;;;;;;;5.07;1.90;;;4.60;19.10;;;;;;9836670;30;20304;-83
2023/03/04 09:46:21;;;;;;;5.87;2.07;;;4.70;19.30;;;;;;9858119;30;20225;-83
2023/03/04 09:51:55;;;;;;;3.40;1.30;;;4.80;20.40;;;;;;9843012;30;20292;-83
2023/03/04 09:57:39;;;;;;;5.87;2.60;;;5.30;18.10;;;;;;9844318;30;20234;-83
2023/03/04 10:03:42;;;;;;;9.07;2.47;;;5.80;17.00;;;;;;9844638;30;20218;-82
2023/03/04 10:09:24;;;;;;;14.20;2.27;;;6.10;14.40;;;;;;9858910;30;20210;-83
2023/03/04 10:14:57;;;;;;;7.27;2.33;;;6.00;13.50;;;;;;9834386;30;20535;-84
2023/03/04 10:20:25;;;;;;;9.23;3.93;;;5.80;14.60;;;;;;9805864;30;20210;-83
2023/03/04 10:25:50;;;;;;;6.50;2.60;;;5.80;15.40;;;;;;9810640;30;20228;-84
2023/03/04 10:31:26;;;;;;;4.90;2.00;;;5.40;15.40;;;;;;9810862;30;20213;-83
2023/03/04 10:36:53;;;;;;;2.93;1.50;;;4.90;16.10;;;;;;9823924;30;20237;-83
2023/03/04 10:42:14;;;;;;;5.47;1.93;;;4.60;15.10;;;;;;9811487;30;20208;-83
2023/03/04 10:47:36;;;;;;;7.07;3.30;;;4.60;13.40;;;;;;9844376;30;20225;-83
2023/03/04 10:52:57;;;;;;;6.57;1.63;;;4.70;11.10;;;;;;9832990;30;20209;-84
2023/03/04 10:58:20;;;;;;;3.67;1.40;;;4.50;9.20;;;;;;9844488;30;20450;-84
2023/03/04 11:03:48;;;;;;;6.00;1.87;;;4.50;9.90;;;;;;9856138;30;20220;-84
2023/03/04 11:09:25;;;;;;;10.70;1.73;;;4.50;10.80;;;;;;9844372;30;20506;-84
2023/03/04 11:14:48;;;;;;;58.23;21.73;;;4.80;9.80;;;;;;9844390;30;20245;-82
2023/03/04 11:20:17;;;;;;;12.70;4.50;;;4.80;7.50;;;;;;9811143;30;20256;-83
2023/03/04 11:25:57;;;;;;;185.20;63.93;;;5.30;7.00;;;;;;9807793;30;20408;-82
2023/03/04 11:31:58;;;;;;;92.20;36.37;;;5.70;6.20;;;;;;9807844;30;20209;-83
2023/03/04 11:37:29;;;;;;;212.80;77.47;;;5.70;6.40;;;;;;9815579;30;20256;-82
2023/03/04 11:43:08;;;;;;;11.37;5.27;;;6.00;6.30;;;;;;9838308;30;20217;-82
2023/03/04 11:48:32;;;;;;;2.93;1.10;;;7.30;3.10;;;;;;9816371;30;20223;-83
2023/03/04 11:54:14;;;;;;;3.63;1.93;;;9.00;1.00;;;;;;9867855;30;20236;-83
2023/03/04 11:59:52;;;;;;;7.60;3.40;;;9.80;1.00;;;;;;9839050;30;20201;-83
2023/03/04 12:05:39;;;;;;;2.70;1.43;;;10.20;1.00;;;;;;9833583;30;20209;-84
2023/03/04 12:11:43;;;;;;;2.27;1.00;;;10.50;1.00;;;;;;9829294;30;20214;-84
2023/03/04 12:17:32;;;;;;;2.87;1.30;;;10.00;1.00;;;;;;9829854;30;20492;-84
2023/03/04 12:23:14;;;;;;;5.60;2.13;;;10.00;1.00;;;;;;9832552;30;20373;-84
2023/03/04 12:28:58;;;;;;;10.60;1.70;;;9.50;1.00;;;;;;9808312;30;20273;-84
2023/03/04 12:34:28;;;;;;;11.67;3.27;;;9.40;1.00;;;;;;9793553;30;20491;-84
2023/03/04 12:40:24;;;;;;;5.30;1.97;;;8.30;1.00;;;;;;9808083;30;20374;-84
2023/03/04 12:46:08;;;;;;;2.93;1.20;;;8.40;1.70;;;;;;9828958;30;20237;-84
2023/03/04 12:52:01;;;;;;;9.73;2.07;;;8.80;2.00;;;;;;9842241;30;20202;-84
2023/03/04 12:57:30;;;;;;;4.00;2.00;;;8.00;2.70;;;;;;9840021;30;20434;-83
2023/03/04 13:03:22;;;;;;;7.03;2.50;;;7.50;3.30;;;;;;9841984;30;20229;-85
2023/03/04 13:09:14;;;;;;;6.07;2.23;;;7.00;4.90;;;;;;9841826;30;20234;-83
2023/03/04 13:14:35;;;;;;;3.20;1.10;;;7.20;3.40;;;;;;9840565;30;20245;-83
2023/03/04 13:20:23;;;;;;;3.17;1.17;;;7.30;1.50;;;;;;9842796;30;20262;-84
2023/03/04 13:25:47;;;;;;;2.77;0.93;;;7.50;1.00;;;;;;9847429;30;20244;-84
2023/03/04 13:31:22;;;;;;;23.43;8.00;;;6.80;3.90;;;;;;9823021;30;20277;-83
2023/03/04 13:36:54;;;;;;;83.33;42.13;;;5.30;6.40;;;;;;9810878;30;20236;-83
2023/03/04 13:42:38;;;;;;;26.63;17.43;;;4.40;8.30;;;;;;9816414;30;20247;-84
2023/03/04 13:48:00;;;;;;;12.87;4.97;;;4.00;8.30;;;;;;9834629;30;20217;-84
2023/03/04 13:53:43;;;;;;;7.43;2.87;;;3.70;8.10;;;;;;9822650;30;20208;-84
2023/03/04 13:59:08;;;;;;;4.57;2.63;;;4.20;7.60;;;;;;9832882;30;20228;-83
2023/03/04 14:04:35;;;;;;;5.43;2.30;;;4.20;6.20;;;;;;9846208;30;20203;-84
2023/03/04 14:10:12;;;;;;;6.30;3.37;;;3.70;5.70;;;;;;9814924;30;20212;-84
2023/03/04 14:15:34;;;;;;;15.33;6.70;;;3.70;5.90;;;;;;9813142;30;20489;-83
2023/03/04 14:20:59;;;;;;;3.30;2.60;;;3.60;6.20;;;;;;9815737;30;20281;-83
2023/03/04 14:26:20;;;;;;;6.40;3.23;;;3.20;6.80;;;;;;9832524;30;20215;-84
2023/03/04 14:31:42;;;;;;;8.20;2.83;;;3.20;7.80;;;;;;9808556;30;20234;-83
2023/03/04 14:37:25;;;;;;;8.20;3.57;;;3.40;8.20;;;;;;9808536;30;20482;-83
2023/03/04 14:42:50;;;;;;;9.23;4.70;;;3.30;7.80;;;;;;9834279;30;20204;-83
2023/03/04 14:48:35;;;;;;;11.67;4.77;;;3.30;7.60;;;;;;9845664;30;20203;-83
2023/03/04 14:53:57;;;;;;;5.83;3.03;;;3.10;8.40;;;;;;9844216;30;20520;-83
2023/03/04 14:59:28;;;;;;;9.23;3.67;;;2.90;9.30;;;;;;9846924;30;20215;-82
2023/03/04 15:04:50;;;;;;;2.60;1.57;;;2.90;9.80;;;;;;9844749;30;20203;-82
2023/03/04 15:10:12;;;;;;;6.03;2.43;;;2.80;10.10;;;;;;9819765;30;20295;-82
2023/03/04 15:15:40;;;;;;;7.13;3.43;;;2.80;10.60;;;;;;9829146;30;20289;-82
2023/03/04 15:21:04;;;;;;;10.13;4.30;;;2.90;10.10;;;;;;9856282;30;20277;-82
2023/03/04 15:26:26;;;;;;;6.70;2.20;;;2.90;10.10;;;;;;9855830;30;20226;-82
2023/03/04 15:31:47;;;;;;;7.53;3.37;;;2.90;9.90;;;;;;9842217;30;20517;-84
2023/03/04 15:37:20;;;;;;;7.90;3.63;;;2.90;10.10;;;;;;9831091;30;20464;-84
2023/03/04 15:42:41;;;;;;;12.47;4.57;;;2.90;10.00;;;;;;9838238;30;20220;-82
2023/03/04 15:48:07;;;;;;;10.87;5.20;;;2.70;8.80;;;;;;9840820;30;20209;-84
2023/03/04 15:53:39;;;;;;;9.97;4.10;;;2.60;8.30;;;;;;9842703;30;20206;-85
2023/03/04 15:59:05;;;;;;;7.10;3.37;;;2.60;8.70;;;;;;9854409;30;20220;-85
2023/03/04 16:04:26;;;;;;;6.23;1.70;;;2.60;9.20;;;;;;9842684;30;20272;-84
2023/03/04 16:10:01;;;;;;;12.13;3.87;;;2.30;8.60;;;;;;9806021;30;20211;-85
2023/03/04 16:15:27;;;;;;;9.03;2.77;;;2.30;9.00;;;;;;9794495;30;20260;-85
2023/03/04 16:20:49;;;;;;;6.17;3.07;;;2.10;9.50;;;;;;9806271;30;20231;-84
2023/03/04 16:26:16;;;;;;;10.73;4.47;;;2.00;9.50;;;;;;9818404;30;20204;-83
2023/03/04 16:31:37;;;;;;;6.67;3.27;;;2.00;9.90;;;;;;9809511;30;20208;-83
2023/03/04 16:37:14;;;;;;;7.73;3.43;;;2.10;10.20;;;;;;9818825;30;20736;-82
2023/03/04 16:42:35;;;;;;;19.80;4.37;;;2.10;10.20;;;;;;9815918;30;20434;-82
2023/03/04 16:48:07;;;;;;;15.17;4.30;;;2.00;11.00;;;;;;9824878;30;20199;-83
2023/03/04 16:53:37;;;;;;;14.30;6.73;;;2.10;11.10;;;;;;9854090;30;20204;-83
2023/03/04 16:58:59;;;;;;;18.60;6.97;;;2.00;11.30;;;;;;9850757;30;20208;-84
2023/03/04 17:04:21;;;;;;;23.37;7.83;;;1.90;11.60;;;;;;9848423;30;20246;-83
2023/03/04 17:09:42;;;;;;;28.47;11.33;;;1.90;11.70;;;;;;9811682;30;20457;-82
2023/03/04 17:15:03;;;;;;;26.07;10.80;;;1.90;12.20;;;;;;9824631;30;20235;-82
2023/03/04 17:20:25;;;;;;;29.27;10.87;;;1.90;12.10;;;;;;9816076;30;20242;-83
2023/03/04 17:25:54;;;;;;;29.23;11.10;;;1.90;12.50;;;;;;9811180;30;20515;-82
2023/03/04 17:31:18;;;;;;;27.40;8.10;;;1.90;13.10;;;;;;9799107;30;20209;-83
2023/03/04 17:36:41;;;;;;;29.67;8.50;;;1.80;13.20;;;;;;9827402;30;21545;-83
2023/03/04 17:42:02;;;;;;;20.47;7.50;;;1.70;13.40;;;;;;9836379;30;20229;-84
2023/03/04 17:47:23;;;;;;;13.37;6.20;;;1.60;13.50;;;;;;9854943;30;20245;-82
2023/03/04 17:52:45;;;;;;;10.83;4.80;;;1.60;13.70;;;;;;9857144;30;20206;-83
2023/03/04 17:58:06;;;;;;;7.47;4.47;;;1.50;13.90;;;;;;9863561;30;20226;-83
2023/03/04 18:03:28;;;;;;;6.73;4.20;;;1.40;14.20;;;;;;9849553;30;20519;-84
2023/03/04 18:08:52;;;;;;;5.17;2.83;;;1.40;14.80;;;;;;9858820;30;20205;-84
2023/03/04 18:14:14;;;;;;;6.73;4.27;;;1.40;14.80;;;;;;9851536;30;20215;-84
2023/03/04 18:19:36;;;;;;;11.20;5.50;;;1.30;15.10;;;;;;9834094;30;20246;-85
2023/03/04 18:24:57;;;;;;;10.70;4.90;;;1.20;15.10;;;;;;9833876;30;20210;-84
2023/03/04 18:30:21;;;;;;;9.47;3.50;;;1.20;15.20;;;;;;9822339;30;20215;-84
2023/03/04 18:35:43;;;;;;;4.63;2.83;;;1.20;15.90;;;;;;9821605;30;20231;-84
2023/03/04 18:41:07;;;;;;;8.40;3.60;;;1.20;15.80;;;;;;9812136;30;20700;-84
2023/03/04 18:46:38;;;;;;;7.53;3.63;;;1.10;16.60;;;;;;9819523;30;20215;-85
2023/03/04 18:51:59;;;;;;;11.97;4.53;;;1.10;16.20;;;;;;9832936;30;20294;-85
2023/03/04 18:57:21;;;;;;;8.93;4.10;;;1.00;15.70;;;;;;9832556;30;20230;-84
2023/03/04 19:03:04;;;;;;;9.43;3.70;;;1.00;16.40;;;;;;9811618;30;20202;-84
2023/03/04 19:08:25;;;;;;;10.80;3.90;;;1.00;16.30;;;;;;9832115;30;20288;-84
2023/03/04 19:13:47;;;;;;;8.80;3.50;;;0.90;16.50;;;;;;9842127;30;20210;-84
2023/03/04 19:19:08;;;;;;;10.10;3.80;;;0.80;16.60;;;;;;9845903;30;20325;-84
2023/03/04 19:24:29;;;;;;;8.00;3.27;;;0.80;16.30;;;;;;9844113;30;20310;-85
2023/03/04 19:29:51;;;;;;;12.47;4.00;;;0.70;16.50;;;;;;9799154;30;20241;-84
2023/03/04 19:35:12;;;;;;;16.87;6.53;;;0.80;16.40;;;;;;9821513;30;20235;-85
2023/03/04 19:40:33;;;;;;;24.23;7.53;;;0.70;16.20;;;;;;9824045;30;20215;-85
2023/03/04 19:45:56;;;;;;;13.00;4.20;;;0.70;16.60;;;;;;9844744;30;20218;-84
2023/03/04 19:51:20;;;;;;;5.33;2.20;;;0.60;16.90;;;;;;9855377;30;20213;-84
2023/03/04 19:56:42;;;;;;;6.97;2.47;;;0.60;16.90;;;;;;9835638;30;20430;-84
2023/03/04 20:02:03;;;;;;;4.57;2.23;;;0.60;16.60;;;;;;9856378;30;20215;-84
2023/03/04 20:07:25;;;;;;;5.07;2.37;;;0.60;16.70;;;;;;9826285;30;20290;-84
2023/03/04 20:12:46;;;;;;;5.43;2.73;;;0.60;16.90;;;;;;9830596;30;20233;-84
2023/03/04 20:18:08;;;;;;;6.80;2.70;;;0.50;17.00;;;;;;9853690;30;20250;-83
2023/03/04 20:23:29;;;;;;;9.30;4.40;;;0.50;17.10;;;;;;9806585;30;20233;-84
2023/03/04 20:28:50;;;;;;;14.77;6.57;;;0.40;17.20;;;;;;9800391;30;20214;-84
2023/03/04 20:34:12;;;;;;;16.60;7.23;;;0.40;17.90;;;;;;9813499;30;20257;-84
2023/03/04 20:39:33;;;;;;;13.87;6.50;;;0.30;17.80;;;;;;9813031;30;20225;-84
2023/03/04 20:44:55;;;;;;;8.80;5.10;;;0.20;18.20;;;;;;9849716;30;20218;-84
2023/03/04 20:50:16;;;;;;;14.27;6.80;;;0.20;18.20;;;;;;9862204;30;20281;-84
2023/03/04 20:55:37;;;;;;;17.93;7.87;;;0.10;18.70;;;;;;9848056;30;20257;-84
2023/03/04 21:00:59;;;;;;;15.80;6.77;;;0.00;19.10;;;;;;9836648;30;20213;-84
2023/03/04 21:06:20;;;;;;;18.90;6.30;;;0.00;19.80;;;;;;9843373;30;20511;-84
2023/03/04 21:11:42;;;;;;;11.47;5.10;;;-0.10;20.10;;;;;;9829330;30;20225;-84
2023/03/04 21:17:03;;;;;;;14.00;5.63;;;-0.10;20.30;;;;;;9811659;30;20277;-84
2023/03/04 21:22:25;;;;;;;9.83;4.60;;;-0.10;20.80;;;;;;9811819;30;20518;-82
2023/03/04 21:27:47;;;;;;;9.70;4.03;;;-0.10;20.60;;;;;;9827001;30;20210;-84
2023/03/04 21:33:18;;;;;;;8.53;3.47;;;-0.10;20.70;;;;;;9836298;30;20210;-82
2023/03/04 21:38:43;;;;;;;9.23;3.70;;;0.00;20.60;;;;;;9848900;30;20277;-81
2023/03/04 21:44:04;;;;;;;7.23;3.13;;;-0.10;1.00;;;;;;9874465;30;20230;-82
2023/03/04 21:49:26;;;;;;;6.63;2.60;;;-0.10;1.00;;;;;;9856368;30;20498;-82
2023/03/04 21:54:48;;;;;;;5.67;2.50;;;-0.10;1.00;;;;;;9847410;30;20216;-82
2023/03/04 22:00:10;;;;;;;6.87;2.80;;;-0.10;1.00;;;;;;9834677;30;20221;-81
2023/03/04 22:05:32;;;;;;;7.37;3.03;;;-0.10;1.00;;;;;;9824522;30;20393;-82
2023/03/04 22:10:53;;;;;;;6.87;3.17;;;-0.10;1.00;;;;;;9831988;30;20213;-82
2023/03/04 22:16:14;;;;;;;3.50;1.87;;;0.00;1.00;;;;;;9833845;30;20576;-82
2023/03/04 22:21:36;;;;;;;6.63;2.13;;;-0.10;1.00;;;;;;9833804;30;20215;-83
2023/03/04 22:26:58;;;;;;;4.33;2.47;;;-0.10;1.00;;;;;;9808444;30;20211;-83
2023/03/04 22:32:19;;;;;;;6.83;2.37;;;0.00;1.00;;;;;;9797319;30;20211;-83
2023/03/04 22:37:41;;;;;;;6.43;2.37;;;-0.10;1.00;;;;;;9812772;30;20238;-83
2023/03/04 22:43:03;;;;;;;8.70;4.13;;;-0.10;1.00;;;;;;9834888;30;20204;-82
2023/03/04 22:48:25;;;;;;;9.30;3.60;;;-0.10;1.00;;;;;;9845155;30;20239;-82
2023/03/04 22:53:47;;;;;;;6.90;2.70;;;-0.10;1.00;;;;;;9842789;30;20215;-82
2023/03/04 22:59:08;;;;;;;8.03;3.07;;;-0.10;1.00;;;;;;9840756;30;20234;-83
2023/03/04 23:04:29;;;;;;;13.20;2.63;;;-0.10;1.00;;;;;;9832260;30;20282;-83
2023/03/04 23:09:51;;;;;;;19.30;2.50;;;-0.10;1.00;;;;;;9842147;30;20226;-82
2023/03/04 23:15:17;;;;;;;6.23;2.67;;;-0.20;1.00;;;;;;9839271;30;20587;-83
2023/03/04 23:20:41;;;;;;;8.50;2.10;;;-0.20;1.00;;;;;;9836946;30;20206;-82
2023/03/04 23:26:02;;;;;;;4.87;2.07;;;-0.20;1.00;;;;;;9843787;30;20237;-82
2023/03/04 23:31:25;;;;;;;5.33;2.23;;;-0.20;1.00;;;;;;9820920;30;20302;-83
2023/03/04 23:36:46;;;;;;;6.93;2.77;;;-0.20;1.00;;;;;;9843569;30;20561;-83
2023/03/04 23:42:08;;;;;;;5.03;2.17;;;-0.20;1.00;;;;;;9846688;30;20568;-82
2023/03/04 23:47:29;;;;;;;5.77;2.20;;;-0.20;1.00;;;;;;9834519;30;20210;-83
2023/03/04 23:52:50;;;;;;;7.43;3.20;;;-0.30;1.00;;;;;;9831296;30;20361;-83
2023/03/04 23:58:12;;;;;;;7.03;3.50;;;-0.30;28.70;;;;;;9842723;30;20300;-83
